sensor_id;sensor_type;location;lat;lon;timestamp;P1;durP1;ratioP1;P2;durP2;ratioP2
18166;SDS011;9208;42.688;23.404;2022-07-17T00:00:40;4.63;;;2.93;;
18166;SDS011;9208;42.688;23.404;2022-07-17T00:03:13;2.73;;;2.63;;
18166;SDS011;9208;42.688;23.404;2022-07-17T00:05:39;6.10;;;2.97;;
18166;SDS011;9208;42.688;23.404;2022-07-17T00:08:06;2.90;;;2.70;;
18166;SDS011;9208;42.688;23.404;2022-07-17T00:10:33;3.00;;;2.77;;
18166;SDS011;9208;42.688;23.404;2022-07-17T00:12:59;2.90;;;2.67;;
18166;SDS011;9208;42.688;23.404;2022-07-17T00:15:25;3.03;;;2.83;;
18166;SDS011;9208;42.688;23.404;2022-07-17T00:17:50;2.97;;;2.77;;
18166;SDS011;9208;42.688;23.404;2022-07-17T00:20:16;3.77;;;3.40;;
18166;SDS011;9208;42.688;23.404;2022-07-17T00:22:41;3.40;;;3.10;;
18166;SDS011;9208;42.688;23.404;2022-07-17T00:25:08;2.73;;;2.53;;
18166;SDS011;9208;42.688;23.404;2022-07-17T00:27:34;3.63;;;3.07;;
18166;SDS011;9208;42.688;23.404;2022-07-17T00:30:00;3.07;;;2.77;;
18166;SDS011;9208;42.688;23.404;2022-07-17T00:32:26;2.97;;;2.67;;
18166;SDS011;9208;42.688;23.404;2022-07-17T00:34:51;4.67;;;2.73;;
18166;SDS011;9208;42.688;23.404;2022-07-17T00:37:17;3.20;;;3.00;;
18166;SDS011;9208;42.688;23.404;2022-07-17T00:39:42;2.93;;;2.73;;
18166;SDS011;9208;42.688;23.404;2022-07-17T00:42:11;4.43;;;2.70;;
18166;SDS011;9208;42.688;23.404;2022-07-17T00:44:37;3.50;;;2.60;;
18166;SDS011;9208;42.688;23.404;2022-07-17T00:47:09;3.27;;;2.67;;
18166;SDS011;9208;42.688;23.404;2022-07-17T00:49:36;3.17;;;2.83;;
18166;SDS011;9208;42.688;23.404;2022-07-17T00:52:02;3.00;;;2.80;;
18166;SDS011;9208;42.688;23.404;2022-07-17T00:54:27;3.17;;;2.63;;
18166;SDS011;9208;42.688;23.404;2022-07-17T00:56:57;2.70;;;2.50;;
18166;SDS011;9208;42.688;23.404;2022-07-17T00:59:25;3.27;;;2.90;;
18166;SDS011;9208;42.688;23.404;2022-07-17T01:01:51;2.73;;;2.50;;
18166;SDS011;9208;42.688;23.404;2022-07-17T01:04:17;2.60;;;2.40;;
18166;SDS011;9208;42.688;23.404;2022-07-17T01:06:42;2.90;;;2.70;;
18166;SDS011;9208;42.688;23.404;2022-07-17T01:09:10;3.20;;;2.93;;
18166;SDS011;9208;42.688;23.404;2022-07-17T01:11:36;3.13;;;2.87;;
18166;SDS011;9208;42.688;23.404;2022-07-17T01:14:02;4.67;;;2.83;;
18166;SDS011;9208;42.688;23.404;2022-07-17T01:16:28;3.10;;;2.80;;
18166;SDS011;9208;42.688;23.404;2022-07-17T01:18:54;3.40;;;3.00;;
18166;SDS011;9208;42.688;23.404;2022-07-17T01:21:20;5.70;;;3.37;;
18166;SDS011;9208;42.688;23.404;2022-07-17T01:23:45;3.70;;;3.40;;
18166;SDS011;9208;42.688;23.404;2022-07-17T01:26:11;3.57;;;3.27;;
18166;SDS011;9208;42.688;23.404;2022-07-17T01:28:37;3.33;;;3.03;;
18166;SDS011;9208;42.688;23.404;2022-07-17T01:31:02;3.90;;;3.50;;
18166;SDS011;9208;42.688;23.404;2022-07-17T01:33:28;3.50;;;3.20;;
18166;SDS011;9208;42.688;23.404;2022-07-17T01:35:54;3.87;;;3.43;;
18166;SDS011;9208;42.688;23.404;2022-07-17T01:38:19;3.90;;;3.60;;
18166;SDS011;9208;42.688;23.404;2022-07-17T01:40:45;4.30;;;3.73;;
18166;SDS011;9208;42.688;23.404;2022-07-17T01:43:10;3.43;;;3.23;;
18166;SDS011;9208;42.688;23.404;2022-07-17T01:45:36;3.93;;;3.53;;
18166;SDS011;9208;42.688;23.404;2022-07-17T01:48:02;4.93;;;3.93;;
18166;SDS011;9208;42.688;23.404;2022-07-17T01:50:27;4.00;;;3.70;;
18166;SDS011;9208;42.688;23.404;2022-07-17T01:52:53;4.23;;;3.77;;
18166;SDS011;9208;42.688;23.404;2022-07-17T01:55:18;4.13;;;3.83;;
18166;SDS011;9208;42.688;23.404;2022-07-17T01:57:44;4.10;;;3.70;;
18166;SDS011;9208;42.688;23.404;2022-07-17T02:00:10;3.83;;;3.53;;
18166;SDS011;9208;42.688;23.404;2022-07-17T02:02:39;3.90;;;3.60;;
18166;SDS011;9208;42.688;23.404;2022-07-17T02:05:05;3.97;;;3.60;;
18166;SDS011;9208;42.688;23.404;2022-07-17T02:07:31;4.13;;;3.83;;
18166;SDS011;9208;42.688;23.404;2022-07-17T02:09:58;4.07;;;3.67;;
18166;SDS011;9208;42.688;23.404;2022-07-17T02:12:23;4.40;;;3.70;;
18166;SDS011;9208;42.688;23.404;2022-07-17T02:14:48;3.50;;;3.27;;
18166;SDS011;9208;42.688;23.404;2022-07-17T02:17:14;4.53;;;3.87;;
18166;SDS011;9208;42.688;23.404;2022-07-17T02:19:39;4.30;;;3.90;;
18166;SDS011;9208;42.688;23.404;2022-07-17T02:22:05;4.10;;;3.70;;
18166;SDS011;9208;42.688;23.404;2022-07-17T02:24:30;4.20;;;3.80;;
18166;SDS011;9208;42.688;23.404;2022-07-17T02:26:56;4.03;;;3.57;;
18166;SDS011;9208;42.688;23.404;2022-07-17T02:29:21;4.00;;;3.70;;
18166;SDS011;9208;42.688;23.404;2022-07-17T02:31:47;4.17;;;3.87;;
18166;SDS011;9208;42.688;23.404;2022-07-17T02:34:12;4.20;;;3.80;;
18166;SDS011;9208;42.688;23.404;2022-07-17T02:36:38;4.17;;;3.80;;
18166;SDS011;9208;42.688;23.404;2022-07-17T02:39:03;4.57;;;3.80;;
18166;SDS011;9208;42.688;23.404;2022-07-17T02:41:29;4.33;;;3.93;;
18166;SDS011;9208;42.688;23.404;2022-07-17T02:43:54;4.30;;;3.87;;
18166;SDS011;9208;42.688;23.404;2022-07-17T02:46:20;4.40;;;3.90;;
18166;SDS011;9208;42.688;23.404;2022-07-17T02:48:45;4.90;;;3.97;;
18166;SDS011;9208;42.688;23.404;2022-07-17T02:51:11;5.23;;;4.80;;
18166;SDS011;9208;42.688;23.404;2022-07-17T02:53:36;5.20;;;4.70;;
18166;SDS011;9208;42.688;23.404;2022-07-17T02:56:02;5.50;;;5.00;;
18166;SDS011;9208;42.688;23.404;2022-07-17T02:58:28;4.77;;;4.27;;
18166;SDS011;9208;42.688;23.404;2022-07-17T03:00:53;5.03;;;4.53;;
18166;SDS011;9208;42.688;23.404;2022-07-17T03:03:18;5.30;;;4.60;;
18166;SDS011;9208;42.688;23.404;2022-07-17T03:05:47;4.53;;;4.10;;
18166;SDS011;9208;42.688;23.404;2022-07-17T03:08:13;5.40;;;4.90;;
18166;SDS011;9208;42.688;23.404;2022-07-17T03:10:39;5.67;;;4.73;;
18166;SDS011;9208;42.688;23.404;2022-07-17T03:13:05;5.03;;;4.60;;
18166;SDS011;9208;42.688;23.404;2022-07-17T03:15:30;4.73;;;4.23;;
18166;SDS011;9208;42.688;23.404;2022-07-17T03:17:56;5.10;;;4.60;;
18166;SDS011;9208;42.688;23.404;2022-07-17T03:20:21;4.83;;;4.10;;
18166;SDS011;9208;42.688;23.404;2022-07-17T03:22:47;4.50;;;4.10;;
18166;SDS011;9208;42.688;23.404;2022-07-17T03:25:12;4.73;;;3.70;;
18166;SDS011;9208;42.688;23.404;2022-07-17T03:27:38;4.17;;;3.87;;
18166;SDS011;9208;42.688;23.404;2022-07-17T03:30:04;5.33;;;3.57;;
18166;SDS011;9208;42.688;23.404;2022-07-17T03:32:30;3.93;;;3.60;;
18166;SDS011;9208;42.688;23.404;2022-07-17T03:34:55;3.97;;;3.33;;
18166;SDS011;9208;42.688;23.404;2022-07-17T03:37:21;3.70;;;3.40;;
18166;SDS011;9208;42.688;23.404;2022-07-17T03:39:46;5.07;;;2.83;;
18166;SDS011;9208;42.688;23.404;2022-07-17T03:42:12;4.43;;;3.30;;
18166;SDS011;9208;42.688;23.404;2022-07-17T03:44:37;3.00;;;2.80;;
18166;SDS011;9208;42.688;23.404;2022-07-17T03:47:03;3.43;;;3.03;;
18166;SDS011;9208;42.688;23.404;2022-07-17T03:49:31;3.20;;;2.80;;
18166;SDS011;9208;42.688;23.404;2022-07-17T03:51:57;2.60;;;2.40;;
18166;SDS011;9208;42.688;23.404;2022-07-17T03:54:22;3.90;;;3.00;;
18166;SDS011;9208;42.688;23.404;2022-07-17T03:56:48;4.60;;;2.80;;
18166;SDS011;9208;42.688;23.404;2022-07-17T03:59:13;5.20;;;2.93;;
18166;SDS011;9208;42.688;23.404;2022-07-17T04:01:39;6.60;;;3.20;;
18166;SDS011;9208;42.688;23.404;2022-07-17T04:04:04;3.20;;;2.50;;
18166;SDS011;9208;42.688;23.404;2022-07-17T04:06:30;2.70;;;2.50;;
18166;SDS011;9208;42.688;23.404;2022-07-17T04:08:55;5.33;;;2.63;;
18166;SDS011;9208;42.688;23.404;2022-07-17T04:11:21;3.10;;;2.90;;
18166;SDS011;9208;42.688;23.404;2022-07-17T04:13:47;2.70;;;2.50;;
18166;SDS011;9208;42.688;23.404;2022-07-17T04:16:13;2.83;;;2.60;;
18166;SDS011;9208;42.688;23.404;2022-07-17T04:18:38;2.93;;;2.50;;
18166;SDS011;9208;42.688;23.404;2022-07-17T04:21:05;2.90;;;2.60;;
18166;SDS011;9208;42.688;23.404;2022-07-17T04:23:32;3.30;;;3.10;;
18166;SDS011;9208;42.688;23.404;2022-07-17T04:25:58;3.17;;;2.87;;
18166;SDS011;9208;42.688;23.404;2022-07-17T04:28:24;4.00;;;3.17;;
18166;SDS011;9208;42.688;23.404;2022-07-17T04:30:50;4.80;;;3.33;;
18166;SDS011;9208;42.688;23.404;2022-07-17T04:33:15;3.07;;;2.80;;
18166;SDS011;9208;42.688;23.404;2022-07-17T04:35:41;2.70;;;2.50;;
18166;SDS011;9208;42.688;23.404;2022-07-17T04:38:07;3.00;;;2.70;;
18166;SDS011;9208;42.688;23.404;2022-07-17T04:40:34;3.13;;;2.93;;
18166;SDS011;9208;42.688;23.404;2022-07-17T04:43:00;3.03;;;2.83;;
18166;SDS011;9208;42.688;23.404;2022-07-17T04:45:27;3.03;;;2.83;;
18166;SDS011;9208;42.688;23.404;2022-07-17T04:47:53;3.57;;;2.40;;
18166;SDS011;9208;42.688;23.404;2022-07-17T04:50:19;2.67;;;2.47;;
18166;SDS011;9208;42.688;23.404;2022-07-17T04:52:45;3.50;;;3.27;;
18166;SDS011;9208;42.688;23.404;2022-07-17T04:55:11;4.63;;;2.80;;
18166;SDS011;9208;42.688;23.404;2022-07-17T04:57:37;4.03;;;3.13;;
18166;SDS011;9208;42.688;23.404;2022-07-17T05:00:06;4.97;;;3.20;;
18166;SDS011;9208;42.688;23.404;2022-07-17T05:02:33;4.40;;;3.47;;
18166;SDS011;9208;42.688;23.404;2022-07-17T05:04:59;3.97;;;3.57;;
18166;SDS011;9208;42.688;23.404;2022-07-17T05:07:25;3.20;;;3.00;;
18166;SDS011;9208;42.688;23.404;2022-07-17T05:09:50;3.40;;;2.47;;
18166;SDS011;9208;42.688;23.404;2022-07-17T05:12:15;3.00;;;2.30;;
18166;SDS011;9208;42.688;23.404;2022-07-17T05:14:41;2.80;;;2.30;;
18166;SDS011;9208;42.688;23.404;2022-07-17T05:17:07;4.90;;;2.50;;
18166;SDS011;9208;42.688;23.404;2022-07-17T05:19:32;7.10;;;2.33;;
18166;SDS011;9208;42.688;23.404;2022-07-17T05:21:58;2.03;;;1.93;;
18166;SDS011;9208;42.688;23.404;2022-07-17T05:24:24;2.70;;;2.40;;
18166;SDS011;9208;42.688;23.404;2022-07-17T05:26:50;2.80;;;2.30;;
18166;SDS011;9208;42.688;23.404;2022-07-17T05:29:15;2.63;;;2.23;;
18166;SDS011;9208;42.688;23.404;2022-07-17T05:31:41;2.70;;;2.20;;
18166;SDS011;9208;42.688;23.404;2022-07-17T05:34:06;2.80;;;2.20;;
18166;SDS011;9208;42.688;23.404;2022-07-17T05:36:32;3.03;;;2.27;;
18166;SDS011;9208;42.688;23.404;2022-07-17T05:38:57;4.90;;;2.17;;
18166;SDS011;9208;42.688;23.404;2022-07-17T05:41:22;2.73;;;2.20;;
18166;SDS011;9208;42.688;23.404;2022-07-17T05:43:48;3.03;;;2.33;;
18166;SDS011;9208;42.688;23.404;2022-07-17T05:46:13;2.67;;;2.40;;
18166;SDS011;9208;42.688;23.404;2022-07-17T05:48:39;2.23;;;2.13;;
18166;SDS011;9208;42.688;23.404;2022-07-17T05:51:04;2.33;;;1.93;;
18166;SDS011;9208;42.688;23.404;2022-07-17T05:53:30;3.00;;;2.63;;
18166;SDS011;9208;42.688;23.404;2022-07-17T05:55:56;3.37;;;2.10;;
18166;SDS011;9208;42.688;23.404;2022-07-17T05:58:21;2.37;;;2.17;;
18166;SDS011;9208;42.688;23.404;2022-07-17T06:00:47;3.50;;;2.20;;
18166;SDS011;9208;42.688;23.404;2022-07-17T06:03:14;3.43;;;2.33;;
18166;SDS011;9208;42.688;23.404;2022-07-17T06:05:40;2.20;;;2.00;;
18166;SDS011;9208;42.688;23.404;2022-07-17T06:08:05;2.70;;;2.50;;
18166;SDS011;9208;42.688;23.404;2022-07-17T06:10:31;2.27;;;2.07;;
18166;SDS011;9208;42.688;23.404;2022-07-17T06:12:57;2.00;;;1.90;;
18166;SDS011;9208;42.688;23.404;2022-07-17T06:15:22;2.37;;;1.97;;
18166;SDS011;9208;42.688;23.404;2022-07-17T06:17:49;2.80;;;2.17;;
18166;SDS011;9208;42.688;23.404;2022-07-17T06:20:15;2.30;;;2.20;;
18166;SDS011;9208;42.688;23.404;2022-07-17T06:22:41;2.73;;;2.17;;
18166;SDS011;9208;42.688;23.404;2022-07-17T06:25:07;2.53;;;2.30;;
18166;SDS011;9208;42.688;23.404;2022-07-17T06:27:34;4.50;;;2.37;;
18166;SDS011;9208;42.688;23.404;2022-07-17T06:30:00;2.40;;;2.23;;
18166;SDS011;9208;42.688;23.404;2022-07-17T06:32:26;2.93;;;2.63;;
18166;SDS011;9208;42.688;23.404;2022-07-17T06:34:52;3.27;;;2.30;;
18166;SDS011;9208;42.688;23.404;2022-07-17T06:37:18;2.40;;;2.20;;
18166;SDS011;9208;42.688;23.404;2022-07-17T06:39:44;2.83;;;2.60;;
18166;SDS011;9208;42.688;23.404;2022-07-17T06:42:09;7.00;;;2.60;;
18166;SDS011;9208;42.688;23.404;2022-07-17T06:44:35;2.87;;;2.53;;
18166;SDS011;9208;42.688;23.404;2022-07-17T06:47:01;5.37;;;2.63;;
18166;SDS011;9208;42.688;23.404;2022-07-17T06:49:27;3.73;;;2.63;;
18166;SDS011;9208;42.688;23.404;2022-07-17T06:51:53;3.63;;;2.27;;
18166;SDS011;9208;42.688;23.404;2022-07-17T06:54:18;2.87;;;2.67;;
18166;SDS011;9208;42.688;23.404;2022-07-17T06:56:44;3.00;;;2.70;;
18166;SDS011;9208;42.688;23.404;2022-07-17T06:59:09;3.23;;;2.50;;
18166;SDS011;9208;42.688;23.404;2022-07-17T07:01:35;11.23;;;3.83;;
18166;SDS011;9208;42.688;23.404;2022-07-17T07:04:02;11.13;;;3.63;;
18166;SDS011;9208;42.688;23.404;2022-07-17T07:06:28;4.67;;;3.00;;
18166;SDS011;9208;42.688;23.404;2022-07-17T07:08:54;4.93;;;2.70;;
18166;SDS011;9208;42.688;23.404;2022-07-17T07:11:20;4.13;;;2.77;;
18166;SDS011;9208;42.688;23.404;2022-07-17T07:13:46;2.73;;;2.53;;
18166;SDS011;9208;42.688;23.404;2022-07-17T07:16:11;2.53;;;2.37;;
18166;SDS011;9208;42.688;23.404;2022-07-17T07:18:37;3.27;;;2.70;;
18166;SDS011;9208;42.688;23.404;2022-07-17T07:21:02;4.40;;;2.10;;
18166;SDS011;9208;42.688;23.404;2022-07-17T07:23:28;3.10;;;2.50;;
18166;SDS011;9208;42.688;23.404;2022-07-17T07:25:53;2.90;;;2.60;;
18166;SDS011;9208;42.688;23.404;2022-07-17T07:28:19;4.53;;;2.33;;
18166;SDS011;9208;42.688;23.404;2022-07-17T07:30:44;2.80;;;2.60;;
18166;SDS011;9208;42.688;23.404;2022-07-17T07:33:10;2.90;;;2.70;;
18166;SDS011;9208;42.688;23.404;2022-07-17T07:35:35;2.80;;;2.50;;
18166;SDS011;9208;42.688;23.404;2022-07-17T07:38:01;2.83;;;2.50;;
18166;SDS011;9208;42.688;23.404;2022-07-17T07:40:28;3.07;;;2.77;;
18166;SDS011;9208;42.688;23.404;2022-07-17T07:42:53;3.60;;;2.60;;
18166;SDS011;9208;42.688;23.404;2022-07-17T07:45:19;2.40;;;2.20;;
18166;SDS011;9208;42.688;23.404;2022-07-17T07:47:45;4.23;;;2.50;;
18166;SDS011;9208;42.688;23.404;2022-07-17T07:50:13;7.33;;;3.37;;
18166;SDS011;9208;42.688;23.404;2022-07-17T07:52:39;2.50;;;2.30;;
18166;SDS011;9208;42.688;23.404;2022-07-17T07:55:06;3.10;;;2.70;;
18166;SDS011;9208;42.688;23.404;2022-07-17T07:57:33;2.83;;;2.60;;
18166;SDS011;9208;42.688;23.404;2022-07-17T07:59:59;3.63;;;2.60;;
18166;SDS011;9208;42.688;23.404;2022-07-17T08:02:25;3.13;;;2.37;;
18166;SDS011;9208;42.688;23.404;2022-07-17T08:04:50;2.50;;;2.30;;
18166;SDS011;9208;42.688;23.404;2022-07-17T08:07:16;3.00;;;2.30;;
18166;SDS011;9208;42.688;23.404;2022-07-17T08:09:41;5.10;;;2.47;;
18166;SDS011;9208;42.688;23.404;2022-07-17T08:12:07;2.93;;;2.70;;
18166;SDS011;9208;42.688;23.404;2022-07-17T08:14:32;3.67;;;2.40;;
18166;SDS011;9208;42.688;23.404;2022-07-17T08:16:58;3.23;;;2.50;;
18166;SDS011;9208;42.688;23.404;2022-07-17T08:19:23;2.93;;;2.60;;
18166;SDS011;9208;42.688;23.404;2022-07-17T08:21:49;2.60;;;2.40;;
18166;SDS011;9208;42.688;23.404;2022-07-17T08:24:14;3.17;;;2.80;;
18166;SDS011;9208;42.688;23.404;2022-07-17T08:26:41;2.80;;;2.53;;
18166;SDS011;9208;42.688;23.404;2022-07-17T08:29:07;2.97;;;2.67;;
18166;SDS011;9208;42.688;23.404;2022-07-17T08:31:32;2.40;;;2.20;;
18166;SDS011;9208;42.688;23.404;2022-07-17T08:33:58;2.60;;;2.40;;
18166;SDS011;9208;42.688;23.404;2022-07-17T08:36:23;2.70;;;2.50;;
18166;SDS011;9208;42.688;23.404;2022-07-17T08:38:49;2.37;;;2.13;;
18166;SDS011;9208;42.688;23.404;2022-07-17T08:41:15;2.57;;;2.30;;
18166;SDS011;9208;42.688;23.404;2022-07-17T08:43:41;2.50;;;2.20;;
18166;SDS011;9208;42.688;23.404;2022-07-17T08:46:10;2.60;;;2.40;;
18166;SDS011;9208;42.688;23.404;2022-07-17T08:48:38;2.60;;;2.07;;
18166;SDS011;9208;42.688;23.404;2022-07-17T08:51:10;2.33;;;2.20;;
18166;SDS011;9208;42.688;23.404;2022-07-17T08:53:36;2.67;;;2.47;;
18166;SDS011;9208;42.688;23.404;2022-07-17T08:56:02;3.40;;;2.40;;
18166;SDS011;9208;42.688;23.404;2022-07-17T08:58:28;2.87;;;2.67;;
18166;SDS011;9208;42.688;23.404;2022-07-17T09:00:54;2.60;;;2.40;;
18166;SDS011;9208;42.688;23.404;2022-07-17T09:03:20;3.17;;;2.30;;
18166;SDS011;9208;42.688;23.404;2022-07-17T09:05:48;2.30;;;2.10;;
18166;SDS011;9208;42.688;23.404;2022-07-17T09:08:18;2.63;;;2.43;;
18166;SDS011;9208;42.688;23.404;2022-07-17T09:10:45;2.30;;;2.20;;
18166;SDS011;9208;42.688;23.404;2022-07-17T09:13:14;2.30;;;2.20;;
18166;SDS011;9208;42.688;23.404;2022-07-17T09:15:46;2.10;;;2.00;;
18166;SDS011;9208;42.688;23.404;2022-07-17T09:18:14;2.53;;;2.17;;
18166;SDS011;9208;42.688;23.404;2022-07-17T09:20:47;2.87;;;2.20;;
18166;SDS011;9208;42.688;23.404;2022-07-17T09:23:21;3.63;;;2.70;;
18166;SDS011;9208;42.688;23.404;2022-07-17T09:25:49;2.43;;;2.23;;
18166;SDS011;9208;42.688;23.404;2022-07-17T09:28:16;2.80;;;2.10;;
18166;SDS011;9208;42.688;23.404;2022-07-17T09:30:44;2.30;;;2.10;;
18166;SDS011;9208;42.688;23.404;2022-07-17T09:33:22;2.27;;;2.07;;
18166;SDS011;9208;42.688;23.404;2022-07-17T09:36:10;1.90;;;1.80;;
18166;SDS011;9208;42.688;23.404;2022-07-17T09:38:39;2.20;;;2.00;;
18166;SDS011;9208;42.688;23.404;2022-07-17T09:41:09;3.53;;;2.30;;
18166;SDS011;9208;42.688;23.404;2022-07-17T09:46:13;2.10;;;2.00;;
18166;SDS011;9208;42.688;23.404;2022-07-17T09:48:44;2.50;;;2.27;;
18166;SDS011;9208;42.688;23.404;2022-07-17T09:51:29;2.93;;;2.10;;
18166;SDS011;9208;42.688;23.404;2022-07-17T09:53:57;2.63;;;2.33;;
18166;SDS011;9208;42.688;23.404;2022-07-17T09:56:25;2.27;;;2.17;;
18166;SDS011;9208;42.688;23.404;2022-07-17T09:58:55;2.57;;;2.37;;
18166;SDS011;9208;42.688;23.404;2022-07-17T10:01:25;2.80;;;2.30;;
18166;SDS011;9208;42.688;23.404;2022-07-17T10:03:51;2.07;;;1.97;;
18166;SDS011;9208;42.688;23.404;2022-07-17T10:06:18;2.70;;;2.03;;
18166;SDS011;9208;42.688;23.404;2022-07-17T10:08:45;4.20;;;2.20;;
18166;SDS011;9208;42.688;23.404;2022-07-17T10:11:11;2.30;;;2.10;;
18166;SDS011;9208;42.688;23.404;2022-07-17T10:13:40;3.17;;;2.30;;
18166;SDS011;9208;42.688;23.404;2022-07-17T10:16:08;2.53;;;2.33;;
18166;SDS011;9208;42.688;23.404;2022-07-17T10:18:36;2.10;;;2.00;;
18166;SDS011;9208;42.688;23.404;2022-07-17T10:21:16;2.30;;;2.10;;
18166;SDS011;9208;42.688;23.404;2022-07-17T10:29:02;3.33;;;2.10;;
18166;SDS011;9208;42.688;23.404;2022-07-17T10:31:31;2.20;;;2.10;;
18166;SDS011;9208;42.688;23.404;2022-07-17T10:34:06;2.30;;;2.20;;
18166;SDS011;9208;42.688;23.404;2022-07-17T10:36:35;3.33;;;1.93;;
18166;SDS011;9208;42.688;23.404;2022-07-17T10:39:18;2.27;;;2.17;;
18166;SDS011;9208;42.688;23.404;2022-07-17T10:42:01;2.20;;;2.00;;
18166;SDS011;9208;42.688;23.404;2022-07-17T10:44:27;2.20;;;2.00;;
18166;SDS011;9208;42.688;23.404;2022-07-17T10:46:54;2.33;;;2.10;;
18166;SDS011;9208;42.688;23.404;2022-07-17T10:49:21;2.40;;;2.00;;
18166;SDS011;9208;42.688;23.404;2022-07-17T10:51:47;2.70;;;2.50;;
18166;SDS011;9208;42.688;23.404;2022-07-17T10:54:13;4.10;;;2.33;;
18166;SDS011;9208;42.688;23.404;2022-07-17T10:56:39;2.53;;;2.30;;
18166;SDS011;9208;42.688;23.404;2022-07-17T10:59:05;2.30;;;2.10;;
18166;SDS011;9208;42.688;23.404;2022-07-17T11:01:31;2.10;;;2.00;;
18166;SDS011;9208;42.688;23.404;2022-07-17T11:03:58;2.40;;;1.90;;
18166;SDS011;9208;42.688;23.404;2022-07-17T11:14:16;2.70;;;2.50;;
18166;SDS011;9208;42.688;23.404;2022-07-17T11:19:30;4.37;;;2.30;;
18166;SDS011;9208;42.688;23.404;2022-07-17T11:21:57;2.30;;;2.10;;
18166;SDS011;9208;42.688;23.404;2022-07-17T11:24:44;2.30;;;2.20;;
18166;SDS011;9208;42.688;23.404;2022-07-17T11:27:12;2.30;;;2.20;;
18166;SDS011;9208;42.688;23.404;2022-07-17T11:29:43;1.93;;;1.83;;
18166;SDS011;9208;42.688;23.404;2022-07-17T11:32:09;2.43;;;2.23;;
18166;SDS011;9208;42.688;23.404;2022-07-17T11:34:34;3.17;;;2.20;;
18166;SDS011;9208;42.688;23.404;2022-07-17T11:37:01;2.33;;;2.13;;
18166;SDS011;9208;42.688;23.404;2022-07-17T11:39:45;5.60;;;2.77;;
18166;SDS011;9208;42.688;23.404;2022-07-17T11:42:13;5.20;;;2.30;;
18166;SDS011;9208;42.688;23.404;2022-07-17T11:44:43;5.33;;;2.33;;
18166;SDS011;9208;42.688;23.404;2022-07-17T11:47:10;2.70;;;2.07;;
18166;SDS011;9208;42.688;23.404;2022-07-17T11:49:37;2.60;;;2.00;;
18166;SDS011;9208;42.688;23.404;2022-07-17T11:52:08;2.80;;;2.15;;
18166;SDS011;9208;42.688;23.404;2022-07-17T11:54:48;2.90;;;2.20;;
18166;SDS011;9208;42.688;23.404;2022-07-17T11:57:16;2.67;;;2.37;;
18166;SDS011;9208;42.688;23.404;2022-07-17T11:59:43;2.80;;;2.10;;
18166;SDS011;9208;42.688;23.404;2022-07-17T12:02:19;2.83;;;2.30;;
18166;SDS011;9208;42.688;23.404;2022-07-17T12:04:58;3.20;;;2.28;;
18166;SDS011;9208;42.688;23.404;2022-07-17T12:07:25;3.17;;;2.28;;
18166;SDS011;9208;42.688;23.404;2022-07-17T12:10:18;2.60;;;2.40;;
18166;SDS011;9208;42.688;23.404;2022-07-17T12:12:52;2.87;;;2.30;;
18166;SDS011;9208;42.688;23.404;2022-07-17T12:15:32;2.65;;;2.40;;
18166;SDS011;9208;42.688;23.404;2022-07-17T12:18:28;3.92;;;2.38;;
18166;SDS011;9208;42.688;23.404;2022-07-17T12:20:56;2.60;;;2.40;;
18166;SDS011;9208;42.688;23.404;2022-07-17T12:23:27;2.33;;;2.22;;
18166;SDS011;9208;42.688;23.404;2022-07-17T12:28:40;2.33;;;2.22;;
18166;SDS011;9208;42.688;23.404;2022-07-17T12:31:09;2.83;;;2.43;;
18166;SDS011;9208;42.688;23.404;2022-07-17T12:33:35;2.83;;;2.37;;
18166;SDS011;9208;42.688;23.404;2022-07-17T12:36:01;2.70;;;2.50;;
18166;SDS011;9208;42.688;23.404;2022-07-17T12:38:26;2.28;;;2.13;;
18166;SDS011;9208;42.688;23.404;2022-07-17T12:40:52;2.10;;;2.00;;
18166;SDS011;9208;42.688;23.404;2022-07-17T12:43:18;2.27;;;2.17;;
18166;SDS011;9208;42.688;23.404;2022-07-17T12:45:43;3.45;;;2.30;;
18166;SDS011;9208;42.688;23.404;2022-07-17T12:48:09;2.73;;;2.50;;
18166;SDS011;9208;42.688;23.404;2022-07-17T12:50:34;2.55;;;2.35;;
18166;SDS011;9208;42.688;23.404;2022-07-17T12:53:00;2.10;;;2.00;;
18166;SDS011;9208;42.688;23.404;2022-07-17T12:55:25;2.50;;;2.30;;
18166;SDS011;9208;42.688;23.404;2022-07-17T12:57:51;2.50;;;2.30;;
18166;SDS011;9208;42.688;23.404;2022-07-17T13:00:16;2.47;;;2.28;;
18166;SDS011;9208;42.688;23.404;2022-07-17T13:02:42;2.38;;;2.08;;
18166;SDS011;9208;42.688;23.404;2022-07-17T13:05:07;3.88;;;2.17;;
18166;SDS011;9208;42.688;23.404;2022-07-17T13:07:33;3.10;;;2.40;;
18166;SDS011;9208;42.688;23.404;2022-07-17T13:09:59;6.35;;;2.88;;
18166;SDS011;9208;42.688;23.404;2022-07-17T13:12:24;2.20;;;2.10;;
18166;SDS011;9208;42.688;23.404;2022-07-17T13:14:50;3.17;;;2.53;;
18166;SDS011;9208;42.688;23.404;2022-07-17T13:17:15;2.30;;;2.10;;
18166;SDS011;9208;42.688;23.404;2022-07-17T13:19:41;3.37;;;2.90;;
18166;SDS011;9208;42.688;23.404;2022-07-17T13:22:07;2.92;;;2.63;;
18166;SDS011;9208;42.688;23.404;2022-07-17T13:24:32;2.70;;;2.40;;
18166;SDS011;9208;42.688;23.404;2022-07-17T13:26:58;3.13;;;2.28;;
18166;SDS011;9208;42.688;23.404;2022-07-17T13:29:24;3.13;;;2.40;;
18166;SDS011;9208;42.688;23.404;2022-07-17T13:31:53;2.50;;;2.40;;
18166;SDS011;9208;42.688;23.404;2022-07-17T13:34:20;2.77;;;2.43;;
18166;SDS011;9208;42.688;23.404;2022-07-17T13:36:45;2.70;;;2.50;;
18166;SDS011;9208;42.688;23.404;2022-07-17T13:39:11;2.60;;;2.40;;
18166;SDS011;9208;42.688;23.404;2022-07-17T13:41:37;4.10;;;2.50;;
18166;SDS011;9208;42.688;23.404;2022-07-17T13:44:03;2.65;;;2.45;;
18166;SDS011;9208;42.688;23.404;2022-07-17T13:46:30;2.30;;;2.20;;
18166;SDS011;9208;42.688;23.404;2022-07-17T13:48:56;5.00;;;2.90;;
18166;SDS011;9208;42.688;23.404;2022-07-17T13:51:22;2.83;;;2.63;;
18166;SDS011;9208;42.688;23.404;2022-07-17T13:53:47;3.00;;;2.70;;
18166;SDS011;9208;42.688;23.404;2022-07-17T13:56:13;2.42;;;2.22;;
18166;SDS011;9208;42.688;23.404;2022-07-17T13:58:39;4.03;;;2.47;;
18166;SDS011;9208;42.688;23.404;2022-07-17T14:01:05;2.90;;;2.50;;
18166;SDS011;9208;42.688;23.404;2022-07-17T14:03:30;2.55;;;2.35;;
18166;SDS011;9208;42.688;23.404;2022-07-17T14:05:57;2.70;;;2.50;;
18166;SDS011;9208;42.688;23.404;2022-07-17T14:08:22;3.72;;;2.50;;
18166;SDS011;9208;42.688;23.404;2022-07-17T14:10:48;2.92;;;2.67;;
18166;SDS011;9208;42.688;23.404;2022-07-17T14:13:13;2.45;;;2.20;;
18166;SDS011;9208;42.688;23.404;2022-07-17T14:15:39;2.67;;;2.40;;
18166;SDS011;9208;42.688;23.404;2022-07-17T14:18:04;2.70;;;2.55;;
18166;SDS011;9208;42.688;23.404;2022-07-17T14:20:30;3.10;;;2.25;;
18166;SDS011;9208;42.688;23.404;2022-07-17T14:22:55;3.00;;;2.40;;
18166;SDS011;9208;42.688;23.404;2022-07-17T14:25:21;2.80;;;2.60;;
18166;SDS011;9208;42.688;23.404;2022-07-17T14:27:46;2.35;;;2.22;;
18166;SDS011;9208;42.688;23.404;2022-07-17T14:30:12;3.42;;;2.83;;
18166;SDS011;9208;42.688;23.404;2022-07-17T14:32:37;10.80;;;3.63;;
18166;SDS011;9208;42.688;23.404;2022-07-17T14:35:09;3.70;;;2.47;;
18166;SDS011;9208;42.688;23.404;2022-07-17T14:37:34;4.15;;;2.58;;
18166;SDS011;9208;42.688;23.404;2022-07-17T14:40:00;2.83;;;2.50;;
18166;SDS011;9208;42.688;23.404;2022-07-17T14:42:26;2.73;;;2.53;;
18166;SDS011;9208;42.688;23.404;2022-07-17T14:44:52;2.42;;;2.20;;
18166;SDS011;9208;42.688;23.404;2022-07-17T14:47:18;2.50;;;2.40;;
18166;SDS011;9208;42.688;23.404;2022-07-17T14:49:44;2.50;;;2.30;;
18166;SDS011;9208;42.688;23.404;2022-07-17T14:52:09;3.00;;;2.70;;
18166;SDS011;9208;42.688;23.404;2022-07-17T14:54:35;2.88;;;2.70;;
18166;SDS011;9208;42.688;23.404;2022-07-17T14:57:00;3.87;;;2.40;;
18166;SDS011;9208;42.688;23.404;2022-07-17T14:59:26;3.50;;;2.50;;
18166;SDS011;9208;42.688;23.404;2022-07-17T15:01:52;2.72;;;2.53;;
18166;SDS011;9208;42.688;23.404;2022-07-17T15:04:17;2.58;;;2.38;;
18166;SDS011;9208;42.688;23.404;2022-07-17T15:06:43;3.35;;;3.00;;